Terminal Aerodrome Forecast
Issued by NWS Upton, NY

Home | Current Version | Previous Version | Text Only | Print | Product List | Glossary On
Versions: 1 2 3 4 5 6 7 8 9 10 11 12 13 14 15 16 17 18 19 20 21 22 23 24 25 26 27 28 29
000
FTUS41 KOKX 282323
TAFJFK
TAF
KJFK 282323Z 2900/3006 19011KT P6SM FEW050
     FM290100 21007KT P6SM FEW050
     FM290300 24004KT P6SM SCT080
     FM291100 29004KT P6SM SCT080
     FM291500 18007KT P6SM FEW050 SCT250
     FM291800 18011KT P6SM SCT050 SCT250
     FM292000 18016KT P6SM SCT050 SCT250
     FM300100 20010KT P6SM FEW050 SCT250=

USA.gov is the U.S. government's official web portal to all federal, state and local government web resources and services.